sensor_id;sensor_type;location;lat;lon;timestamp;P1;durP1;ratioP1;P2;durP2;ratioP2
17347;SDS011;8791;50.876;4.342;2023-01-10T00:02:04;15.40;;;2.73;;
17347;SDS011;8791;50.876;4.342;2023-01-10T00:04:31;18.57;;;2.70;;
17347;SDS011;8791;50.876;4.342;2023-01-10T00:06:58;12.77;;;3.23;;
17347;SDS011;8791;50.876;4.342;2023-01-10T00:09:25;15.23;;;2.80;;
17347;SDS011;8791;50.876;4.342;2023-01-10T00:11:51;15.47;;;3.23;;
17347;SDS011;8791;50.876;4.342;2023-01-10T00:14:36;12.63;;;2.60;;
17347;SDS011;8791;50.876;4.342;2023-01-10T00:17:03;22.27;;;3.07;;
17347;SDS011;8791;50.876;4.342;2023-01-10T00:19:31;13.13;;;3.13;;
17347;SDS011;8791;50.876;4.342;2023-01-10T00:21:58;13.30;;;3.13;;
17347;SDS011;8791;50.876;4.342;2023-01-10T00:24:37;17.73;;;3.23;;
17347;SDS011;8791;50.876;4.342;2023-01-10T00:27:06;17.67;;;3.50;;
17347;SDS011;8791;50.876;4.342;2023-01-10T00:29:36;14.70;;;3.50;;
17347;SDS011;8791;50.876;4.342;2023-01-10T00:32:05;15.13;;;3.20;;
17347;SDS011;8791;50.876;4.342;2023-01-10T00:34:32;11.23;;;2.90;;
17347;SDS011;8791;50.876;4.342;2023-01-10T00:36:58;10.90;;;3.40;;
17347;SDS011;8791;50.876;4.342;2023-01-10T00:39:25;16.63;;;3.00;;
17347;SDS011;8791;50.876;4.342;2023-01-10T00:41:52;14.40;;;2.97;;
17347;SDS011;8791;50.876;4.342;2023-01-10T00:44:37;20.13;;;3.03;;
17347;SDS011;8791;50.876;4.342;2023-01-10T00:47:05;17.07;;;3.20;;
17347;SDS011;8791;50.876;4.342;2023-01-10T00:49:32;14.90;;;3.63;;
17347;SDS011;8791;50.876;4.342;2023-01-10T00:51:59;13.57;;;2.70;;
17347;SDS011;8791;50.876;4.342;2023-01-10T00:54:26;19.77;;;3.13;;
17347;SDS011;8791;50.876;4.342;2023-01-10T00:56:53;13.93;;;2.83;;
17347;SDS011;8791;50.876;4.342;2023-01-10T00:59:20;18.30;;;2.90;;
17347;SDS011;8791;50.876;4.342;2023-01-10T01:01:47;21.57;;;2.93;;
17347;SDS011;8791;50.876;4.342;2023-01-10T01:04:15;19.20;;;3.10;;
17347;SDS011;8791;50.876;4.342;2023-01-10T01:06:42;16.27;;;2.90;;
17347;SDS011;8791;50.876;4.342;2023-01-10T01:09:11;11.63;;;3.07;;
17347;SDS011;8791;50.876;4.342;2023-01-10T01:11:37;17.53;;;2.80;;
17347;SDS011;8791;50.876;4.342;2023-01-10T01:14:04;16.30;;;3.20;;
17347;SDS011;8791;50.876;4.342;2023-01-10T01:16:31;21.50;;;3.17;;
17347;SDS011;8791;50.876;4.342;2023-01-10T01:18:58;13.97;;;3.10;;
17347;SDS011;8791;50.876;4.342;2023-01-10T01:21:26;11.93;;;3.10;;
17347;SDS011;8791;50.876;4.342;2023-01-10T01:23:53;19.10;;;3.40;;
17347;SDS011;8791;50.876;4.342;2023-01-10T01:26:21;22.50;;;3.53;;
17347;SDS011;8791;50.876;4.342;2023-01-10T01:28:48;32.13;;;4.17;;
17347;SDS011;8791;50.876;4.342;2023-01-10T01:31:15;16.50;;;3.67;;
17347;SDS011;8791;50.876;4.342;2023-01-10T01:33:42;17.60;;;2.70;;
17347;SDS011;8791;50.876;4.342;2023-01-10T01:36:10;16.97;;;3.00;;
17347;SDS011;8791;50.876;4.342;2023-01-10T01:38:39;15.70;;;3.17;;
17347;SDS011;8791;50.876;4.342;2023-01-10T01:41:06;25.63;;;3.40;;
17347;SDS011;8791;50.876;4.342;2023-01-10T01:43:57;11.87;;;2.93;;
17347;SDS011;8791;50.876;4.342;2023-01-10T01:46:26;19.37;;;3.43;;
17347;SDS011;8791;50.876;4.342;2023-01-10T01:48:54;18.93;;;3.50;;
17347;SDS011;8791;50.876;4.342;2023-01-10T01:51:21;24.03;;;3.00;;
17347;SDS011;8791;50.876;4.342;2023-01-10T01:53:53;15.90;;;2.97;;
17347;SDS011;8791;50.876;4.342;2023-01-10T01:56:22;25.23;;;4.00;;
17347;SDS011;8791;50.876;4.342;2023-01-10T01:58:55;17.53;;;2.87;;
17347;SDS011;8791;50.876;4.342;2023-01-10T02:01:25;16.00;;;2.87;;
17347;SDS011;8791;50.876;4.342;2023-01-10T02:03:54;10.57;;;2.53;;
17347;SDS011;8791;50.876;4.342;2023-01-10T02:06:24;25.80;;;4.13;;
17347;SDS011;8791;50.876;4.342;2023-01-10T02:08:53;15.00;;;2.73;;
17347;SDS011;8791;50.876;4.342;2023-01-10T02:11:25;23.93;;;3.30;;
17347;SDS011;8791;50.876;4.342;2023-01-10T02:13:52;30.07;;;3.73;;
17347;SDS011;8791;50.876;4.342;2023-01-10T02:16:19;19.00;;;3.00;;
17347;SDS011;8791;50.876;4.342;2023-01-10T02:18:46;22.40;;;3.63;;
17347;SDS011;8791;50.876;4.342;2023-01-10T02:27:21;26.83;;;3.40;;
17347;SDS011;8791;50.876;4.342;2023-01-10T02:30:04;18.43;;;3.33;;
17347;SDS011;8791;50.876;4.342;2023-01-10T02:33:12;9.77;;;3.10;;
17347;SDS011;8791;50.876;4.342;2023-01-10T02:36:01;18.40;;;2.93;;
17347;SDS011;8791;50.876;4.342;2023-01-10T02:38:55;17.87;;;2.90;;
17347;SDS011;8791;50.876;4.342;2023-01-10T02:41:28;18.67;;;3.17;;
17347;SDS011;8791;50.876;4.342;2023-01-10T02:44:03;21.83;;;2.97;;
17347;SDS011;8791;50.876;4.342;2023-01-10T02:46:33;19.27;;;3.23;;
17347;SDS011;8791;50.876;4.342;2023-01-10T02:49:05;32.87;;;4.20;;
17347;SDS011;8791;50.876;4.342;2023-01-10T02:51:32;24.03;;;3.23;;
17347;SDS011;8791;50.876;4.342;2023-01-10T02:53:59;16.90;;;4.13;;
17347;SDS011;8791;50.876;4.342;2023-01-10T02:59:36;25.90;;;3.47;;
17347;SDS011;8791;50.876;4.342;2023-01-10T03:02:17;24.33;;;5.13;;
17347;SDS011;8791;50.876;4.342;2023-01-10T03:04:54;28.03;;;3.30;;
17347;SDS011;8791;50.876;4.342;2023-01-10T03:07:31;21.00;;;3.17;;
17347;SDS011;8791;50.876;4.342;2023-01-10T03:10:03;18.80;;;3.10;;
17347;SDS011;8791;50.876;4.342;2023-01-10T03:12:36;18.57;;;3.23;;
17347;SDS011;8791;50.876;4.342;2023-01-10T03:15:06;28.63;;;3.60;;
17347;SDS011;8791;50.876;4.342;2023-01-10T03:17:35;30.03;;;3.57;;
17347;SDS011;8791;50.876;4.342;2023-01-10T03:20:06;34.47;;;3.40;;
17347;SDS011;8791;50.876;4.342;2023-01-10T03:22:34;21.60;;;3.63;;
17347;SDS011;8791;50.876;4.342;2023-01-10T03:25:05;16.57;;;3.40;;
17347;SDS011;8791;50.876;4.342;2023-01-10T03:27:37;26.57;;;3.47;;
17347;SDS011;8791;50.876;4.342;2023-01-10T03:30:12;17.90;;;4.50;;
17347;SDS011;8791;50.876;4.342;2023-01-10T03:32:46;19.60;;;3.83;;
17347;SDS011;8791;50.876;4.342;2023-01-10T03:35:14;18.30;;;3.60;;
17347;SDS011;8791;50.876;4.342;2023-01-10T03:37:43;19.17;;;3.77;;
17347;SDS011;8791;50.876;4.342;2023-01-10T03:40:15;27.30;;;3.87;;
17347;SDS011;8791;50.876;4.342;2023-01-10T03:42:49;23.60;;;3.77;;
17347;SDS011;8791;50.876;4.342;2023-01-10T03:45:41;24.17;;;4.03;;
17347;SDS011;8791;50.876;4.342;2023-01-10T03:48:13;22.60;;;3.73;;
17347;SDS011;8791;50.876;4.342;2023-01-10T03:50:43;25.40;;;3.83;;
17347;SDS011;8791;50.876;4.342;2023-01-10T03:53:11;17.57;;;3.57;;
17347;SDS011;8791;50.876;4.342;2023-01-10T03:55:39;28.57;;;4.07;;
17347;SDS011;8791;50.876;4.342;2023-01-10T03:58:08;14.63;;;3.50;;
17347;SDS011;8791;50.876;4.342;2023-01-10T04:00:35;33.40;;;3.87;;
17347;SDS011;8791;50.876;4.342;2023-01-10T04:03:03;22.50;;;3.80;;
17347;SDS011;8791;50.876;4.342;2023-01-10T04:05:30;27.63;;;4.30;;
17347;SDS011;8791;50.876;4.342;2023-01-10T04:07:58;27.50;;;4.20;;
17347;SDS011;8791;50.876;4.342;2023-01-10T04:10:25;26.30;;;3.53;;
17347;SDS011;8791;50.876;4.342;2023-01-10T04:12:53;19.20;;;3.33;;
17347;SDS011;8791;50.876;4.342;2023-01-10T04:15:20;22.17;;;4.40;;
17347;SDS011;8791;50.876;4.342;2023-01-10T04:17:47;27.23;;;4.00;;
17347;SDS011;8791;50.876;4.342;2023-01-10T04:20:14;18.73;;;3.80;;
17347;SDS011;8791;50.876;4.342;2023-01-10T04:22:42;23.50;;;4.00;;
17347;SDS011;8791;50.876;4.342;2023-01-10T04:25:11;24.67;;;3.90;;
17347;SDS011;8791;50.876;4.342;2023-01-10T04:27:38;20.67;;;3.47;;
17347;SDS011;8791;50.876;4.342;2023-01-10T04:30:06;25.73;;;3.90;;
17347;SDS011;8791;50.876;4.342;2023-01-10T04:32:33;20.67;;;4.03;;
17347;SDS011;8791;50.876;4.342;2023-01-10T04:35:01;22.07;;;4.00;;
17347;SDS011;8791;50.876;4.342;2023-01-10T04:37:28;21.33;;;3.80;;
17347;SDS011;8791;50.876;4.342;2023-01-10T04:39:54;17.00;;;3.60;;
17347;SDS011;8791;50.876;4.342;2023-01-10T04:42:23;30.60;;;4.27;;
17347;SDS011;8791;50.876;4.342;2023-01-10T04:44:49;33.40;;;4.47;;
17347;SDS011;8791;50.876;4.342;2023-01-10T04:47:16;39.07;;;4.83;;
17347;SDS011;8791;50.876;4.342;2023-01-10T04:49:43;27.23;;;3.97;;
17347;SDS011;8791;50.876;4.342;2023-01-10T04:52:10;25.13;;;4.17;;
17347;SDS011;8791;50.876;4.342;2023-01-10T04:54:37;29.73;;;3.63;;
17347;SDS011;8791;50.876;4.342;2023-01-10T04:57:04;21.10;;;4.63;;
17347;SDS011;8791;50.876;4.342;2023-01-10T04:59:32;28.77;;;4.70;;
17347;SDS011;8791;50.876;4.342;2023-01-10T05:01:59;35.67;;;3.47;;
17347;SDS011;8791;50.876;4.342;2023-01-10T05:04:26;20.67;;;3.83;;
17347;SDS011;8791;50.876;4.342;2023-01-10T05:06:53;25.30;;;4.30;;
17347;SDS011;8791;50.876;4.342;2023-01-10T05:09:19;26.57;;;3.40;;
17347;SDS011;8791;50.876;4.342;2023-01-10T05:11:46;27.07;;;4.43;;
17347;SDS011;8791;50.876;4.342;2023-01-10T05:14:13;28.03;;;3.93;;
17347;SDS011;8791;50.876;4.342;2023-01-10T05:16:41;28.33;;;3.77;;
17347;SDS011;8791;50.876;4.342;2023-01-10T05:19:08;24.87;;;3.70;;
17347;SDS011;8791;50.876;4.342;2023-01-10T05:21:35;25.60;;;3.80;;
17347;SDS011;8791;50.876;4.342;2023-01-10T05:24:01;22.60;;;4.17;;
17347;SDS011;8791;50.876;4.342;2023-01-10T05:26:28;18.10;;;3.40;;
17347;SDS011;8791;50.876;4.342;2023-01-10T05:28:55;24.97;;;3.47;;
17347;SDS011;8791;50.876;4.342;2023-01-10T05:31:22;32.53;;;4.33;;
17347;SDS011;8791;50.876;4.342;2023-01-10T05:33:50;27.90;;;3.07;;
17347;SDS011;8791;50.876;4.342;2023-01-10T05:36:17;29.57;;;4.27;;
17347;SDS011;8791;50.876;4.342;2023-01-10T05:38:44;35.27;;;3.93;;
17347;SDS011;8791;50.876;4.342;2023-01-10T05:41:11;28.03;;;3.20;;
17347;SDS011;8791;50.876;4.342;2023-01-10T05:43:38;25.50;;;3.93;;
17347;SDS011;8791;50.876;4.342;2023-01-10T05:46:05;29.43;;;3.93;;
17347;SDS011;8791;50.876;4.342;2023-01-10T05:48:32;27.03;;;4.27;;
17347;SDS011;8791;50.876;4.342;2023-01-10T05:51:00;29.57;;;4.23;;
17347;SDS011;8791;50.876;4.342;2023-01-10T05:53:27;21.00;;;3.40;;
17347;SDS011;8791;50.876;4.342;2023-01-10T05:55:54;37.90;;;3.87;;
17347;SDS011;8791;50.876;4.342;2023-01-10T05:58:22;25.33;;;3.67;;
17347;SDS011;8791;50.876;4.342;2023-01-10T06:00:50;20.67;;;3.97;;
17347;SDS011;8791;50.876;4.342;2023-01-10T06:03:17;14.90;;;3.17;;
17347;SDS011;8791;50.876;4.342;2023-01-10T06:05:44;29.67;;;4.20;;
17347;SDS011;8791;50.876;4.342;2023-01-10T06:08:12;38.93;;;4.07;;
17347;SDS011;8791;50.876;4.342;2023-01-10T06:10:39;32.87;;;3.83;;
17347;SDS011;8791;50.876;4.342;2023-01-10T06:13:06;40.53;;;4.00;;
17347;SDS011;8791;50.876;4.342;2023-01-10T06:15:34;31.37;;;3.70;;
17347;SDS011;8791;50.876;4.342;2023-01-10T06:18:01;32.07;;;3.20;;
17347;SDS011;8791;50.876;4.342;2023-01-10T06:20:28;18.43;;;2.80;;
17347;SDS011;8791;50.876;4.342;2023-01-10T06:22:54;34.10;;;4.53;;
17347;SDS011;8791;50.876;4.342;2023-01-10T06:25:23;17.43;;;3.00;;
17347;SDS011;8791;50.876;4.342;2023-01-10T06:27:51;24.97;;;3.27;;
17347;SDS011;8791;50.876;4.342;2023-01-10T06:30:18;24.57;;;3.53;;
17347;SDS011;8791;50.876;4.342;2023-01-10T06:32:45;26.97;;;3.70;;
17347;SDS011;8791;50.876;4.342;2023-01-10T06:35:12;23.63;;;3.50;;
17347;SDS011;8791;50.876;4.342;2023-01-10T06:37:41;28.67;;;3.90;;
17347;SDS011;8791;50.876;4.342;2023-01-10T06:40:09;34.80;;;4.77;;
17347;SDS011;8791;50.876;4.342;2023-01-10T06:42:38;27.33;;;4.00;;
17347;SDS011;8791;50.876;4.342;2023-01-10T06:45:05;21.40;;;3.83;;
17347;SDS011;8791;50.876;4.342;2023-01-10T06:47:34;28.20;;;3.43;;
17347;SDS011;8791;50.876;4.342;2023-01-10T06:50:01;28.37;;;3.57;;
17347;SDS011;8791;50.876;4.342;2023-01-10T06:52:28;26.93;;;4.50;;
17347;SDS011;8791;50.876;4.342;2023-01-10T06:54:55;21.97;;;4.30;;
17347;SDS011;8791;50.876;4.342;2023-01-10T06:57:22;31.83;;;3.37;;
17347;SDS011;8791;50.876;4.342;2023-01-10T06:59:50;26.27;;;3.80;;
17347;SDS011;8791;50.876;4.342;2023-01-10T07:02:17;29.03;;;3.67;;
17347;SDS011;8791;50.876;4.342;2023-01-10T07:04:44;27.57;;;3.63;;
17347;SDS011;8791;50.876;4.342;2023-01-10T07:07:11;28.20;;;4.00;;
17347;SDS011;8791;50.876;4.342;2023-01-10T07:09:38;21.00;;;3.37;;
17347;SDS011;8791;50.876;4.342;2023-01-10T07:12:05;12.03;;;3.77;;
17347;SDS011;8791;50.876;4.342;2023-01-10T07:14:32;29.97;;;3.90;;
17347;SDS011;8791;50.876;4.342;2023-01-10T07:17:00;18.83;;;3.40;;
17347;SDS011;8791;50.876;4.342;2023-01-10T07:19:26;33.73;;;4.40;;
17347;SDS011;8791;50.876;4.342;2023-01-10T07:21:53;18.90;;;3.40;;
17347;SDS011;8791;50.876;4.342;2023-01-10T07:24:20;26.77;;;4.10;;
17347;SDS011;8791;50.876;4.342;2023-01-10T07:26:47;33.40;;;3.93;;
17347;SDS011;8791;50.876;4.342;2023-01-10T07:29:14;19.93;;;3.70;;
17347;SDS011;8791;50.876;4.342;2023-01-10T07:31:40;25.23;;;3.77;;
17347;SDS011;8791;50.876;4.342;2023-01-10T07:34:08;22.07;;;3.67;;
17347;SDS011;8791;50.876;4.342;2023-01-10T07:36:35;23.00;;;3.93;;
17347;SDS011;8791;50.876;4.342;2023-01-10T07:39:02;27.17;;;4.10;;
17347;SDS011;8791;50.876;4.342;2023-01-10T07:41:29;24.77;;;4.27;;
17347;SDS011;8791;50.876;4.342;2023-01-10T07:43:56;22.60;;;3.30;;
17347;SDS011;8791;50.876;4.342;2023-01-10T07:46:23;23.50;;;4.03;;
17347;SDS011;8791;50.876;4.342;2023-01-10T07:48:50;23.60;;;3.80;;
17347;SDS011;8791;50.876;4.342;2023-01-10T07:51:18;21.47;;;4.17;;
17347;SDS011;8791;50.876;4.342;2023-01-10T07:53:45;21.13;;;3.50;;
17347;SDS011;8791;50.876;4.342;2023-01-10T07:56:12;25.30;;;3.80;;
17347;SDS011;8791;50.876;4.342;2023-01-10T07:58:39;28.77;;;3.63;;
17347;SDS011;8791;50.876;4.342;2023-01-10T08:01:06;27.60;;;4.03;;
17347;SDS011;8791;50.876;4.342;2023-01-10T08:03:33;22.77;;;3.60;;
17347;SDS011;8791;50.876;4.342;2023-01-10T08:06:01;28.93;;;5.80;;
17347;SDS011;8791;50.876;4.342;2023-01-10T08:08:31;22.97;;;5.30;;
17347;SDS011;8791;50.876;4.342;2023-01-10T08:10:58;30.00;;;4.93;;
17347;SDS011;8791;50.876;4.342;2023-01-10T08:13:26;36.20;;;6.40;;
17347;SDS011;8791;50.876;4.342;2023-01-10T08:15:53;35.97;;;6.27;;
17347;SDS011;8791;50.876;4.342;2023-01-10T08:18:21;46.47;;;5.23;;
17347;SDS011;8791;50.876;4.342;2023-01-10T08:20:49;21.50;;;5.40;;
17347;SDS011;8791;50.876;4.342;2023-01-10T08:23:16;28.57;;;4.53;;
17347;SDS011;8791;50.876;4.342;2023-01-10T08:25:45;17.37;;;3.83;;
17347;SDS011;8791;50.876;4.342;2023-01-10T08:28:12;21.97;;;4.37;;
17347;SDS011;8791;50.876;4.342;2023-01-10T08:30:39;21.53;;;4.10;;
17347;SDS011;8791;50.876;4.342;2023-01-10T08:33:06;17.43;;;3.20;;
17347;SDS011;8791;50.876;4.342;2023-01-10T08:35:37;24.67;;;3.73;;
17347;SDS011;8791;50.876;4.342;2023-01-10T08:38:04;27.60;;;4.03;;
17347;SDS011;8791;50.876;4.342;2023-01-10T08:40:31;19.87;;;4.10;;
17347;SDS011;8791;50.876;4.342;2023-01-10T08:43:00;25.07;;;3.83;;
17347;SDS011;8791;50.876;4.342;2023-01-10T08:45:28;20.77;;;4.23;;
17347;SDS011;8791;50.876;4.342;2023-01-10T08:47:55;17.00;;;4.00;;
17347;SDS011;8791;50.876;4.342;2023-01-10T09:07:37;21.33;;;5.00;;
17347;SDS011;8791;50.876;4.342;2023-01-10T09:10:05;30.73;;;5.27;;
17347;SDS011;8791;50.876;4.342;2023-01-10T09:12:33;26.27;;;6.80;;
17347;SDS011;8791;50.876;4.342;2023-01-10T09:15:17;20.80;;;4.03;;
17347;SDS011;8791;50.876;4.342;2023-01-10T09:17:44;20.90;;;3.83;;
17347;SDS011;8791;50.876;4.342;2023-01-10T09:20:10;19.90;;;3.93;;
17347;SDS011;8791;50.876;4.342;2023-01-10T09:22:39;24.27;;;4.23;;
17347;SDS011;8791;50.876;4.342;2023-01-10T09:25:06;22.27;;;4.30;;
17347;SDS011;8791;50.876;4.342;2023-01-10T09:27:33;23.00;;;4.40;;
17347;SDS011;8791;50.876;4.342;2023-01-10T09:30:00;22.20;;;4.30;;
17347;SDS011;8791;50.876;4.342;2023-01-10T09:32:27;17.10;;;4.23;;
17347;SDS011;8791;50.876;4.342;2023-01-10T09:34:53;18.77;;;3.67;;
17347;SDS011;8791;50.876;4.342;2023-01-10T09:37:20;23.07;;;4.53;;
17347;SDS011;8791;50.876;4.342;2023-01-10T09:39:48;21.67;;;4.13;;
17347;SDS011;8791;50.876;4.342;2023-01-10T09:45:15;27.07;;;4.70;;
17347;SDS011;8791;50.876;4.342;2023-01-10T09:47:48;23.83;;;4.33;;
17347;SDS011;8791;50.876;4.342;2023-01-10T09:50:20;30.13;;;5.07;;
17347;SDS011;8791;50.876;4.342;2023-01-10T09:52:55;35.03;;;4.30;;
17347;SDS011;8791;50.876;4.342;2023-01-10T09:55:30;26.33;;;4.70;;
17347;SDS011;8791;50.876;4.342;2023-01-10T09:57:59;23.10;;;3.80;;
17347;SDS011;8791;50.876;4.342;2023-01-10T10:00:32;21.90;;;4.03;;
17347;SDS011;8791;50.876;4.342;2023-01-10T10:03:03;20.73;;;4.80;;
17347;SDS011;8791;50.876;4.342;2023-01-10T10:05:36;30.57;;;4.50;;
17347;SDS011;8791;50.876;4.342;2023-01-10T10:08:03;22.50;;;4.70;;
17347;SDS011;8791;50.876;4.342;2023-01-10T10:10:42;24.80;;;4.03;;
17347;SDS011;8791;50.876;4.342;2023-01-10T10:13:24;28.43;;;4.57;;
17347;SDS011;8791;50.876;4.342;2023-01-10T10:15:58;14.43;;;3.40;;
17347;SDS011;8791;50.876;4.342;2023-01-10T10:18:35;26.93;;;4.00;;
17347;SDS011;8791;50.876;4.342;2023-01-10T10:21:10;34.57;;;4.07;;
17347;SDS011;8791;50.876;4.342;2023-01-10T10:23:47;21.27;;;4.13;;
17347;SDS011;8791;50.876;4.342;2023-01-10T10:26:28;28.40;;;5.10;;
17347;SDS011;8791;50.876;4.342;2023-01-10T10:29:13;32.27;;;13.37;;
17347;SDS011;8791;50.876;4.342;2023-01-10T10:32:04;20.00;;;4.10;;
17347;SDS011;8791;50.876;4.342;2023-01-10T10:34:42;19.93;;;4.97;;
17347;SDS011;8791;50.876;4.342;2023-01-10T10:37:16;28.70;;;4.43;;
17347;SDS011;8791;50.876;4.342;2023-01-10T10:39:48;21.03;;;3.87;;
17347;SDS011;8791;50.876;4.342;2023-01-10T10:42:20;32.90;;;4.97;;
17347;SDS011;8791;50.876;4.342;2023-01-10T10:44:49;29.40;;;4.17;;
17347;SDS011;8791;50.876;4.342;2023-01-10T10:47:21;20.60;;;4.13;;
17347;SDS011;8791;50.876;4.342;2023-01-10T10:49:49;25.53;;;4.67;;
17347;SDS011;8791;50.876;4.342;2023-01-10T10:52:24;37.90;;;9.93;;
17347;SDS011;8791;50.876;4.342;2023-01-10T10:54:52;15.07;;;3.37;;
17347;SDS011;8791;50.876;4.342;2023-01-10T10:57:23;22.73;;;4.43;;
17347;SDS011;8791;50.876;4.342;2023-01-10T10:59:52;23.57;;;3.57;;
17347;SDS011;8791;50.876;4.342;2023-01-10T11:02:21;23.20;;;5.20;;
17347;SDS011;8791;50.876;4.342;2023-01-10T11:04:51;23.03;;;3.97;;
17347;SDS011;8791;50.876;4.342;2023-01-10T11:07:20;25.03;;;4.50;;
17347;SDS011;8791;50.876;4.342;2023-01-10T11:09:48;22.47;;;4.27;;
17347;SDS011;8791;50.876;4.342;2023-01-10T11:12:23;24.40;;;4.10;;
17347;SDS011;8791;50.876;4.342;2023-01-10T11:14:54;24.43;;;4.03;;
17347;SDS011;8791;50.876;4.342;2023-01-10T11:17:23;20.17;;;3.80;;
17347;SDS011;8791;50.876;4.342;2023-01-10T11:19:56;19.77;;;6.20;;
17347;SDS011;8791;50.876;4.342;2023-01-10T11:22:24;23.73;;;3.87;;
17347;SDS011;8791;50.876;4.342;2023-01-10T11:24:53;24.87;;;4.00;;
17347;SDS011;8791;50.876;4.342;2023-01-10T11:27:25;18.80;;;3.77;;
17347;SDS011;8791;50.876;4.342;2023-01-10T11:29:54;32.40;;;5.03;;
17347;SDS011;8791;50.876;4.342;2023-01-10T11:32:25;18.03;;;3.97;;
17347;SDS011;8791;50.876;4.342;2023-01-10T11:34:59;18.37;;;4.07;;
17347;SDS011;8791;50.876;4.342;2023-01-10T11:37:28;21.47;;;3.90;;
17347;SDS011;8791;50.876;4.342;2023-01-10T11:40:16;19.30;;;3.53;;
17347;SDS011;8791;50.876;4.342;2023-01-10T11:42:49;29.00;;;4.03;;
17347;SDS011;8791;50.876;4.342;2023-01-10T11:45:23;31.23;;;4.00;;
17347;SDS011;8791;50.876;4.342;2023-01-10T11:47:53;20.40;;;4.33;;
17347;SDS011;8791;50.876;4.342;2023-01-10T11:50:23;30.97;;;5.30;;
17347;SDS011;8791;50.876;4.342;2023-01-10T11:52:52;16.73;;;3.83;;
17347;SDS011;8791;50.876;4.342;2023-01-10T11:55:20;24.30;;;4.27;;
17347;SDS011;8791;50.876;4.342;2023-01-10T11:57:55;21.07;;;4.33;;
17347;SDS011;8791;50.876;4.342;2023-01-10T12:00:29;23.73;;;7.20;;
17347;SDS011;8791;50.876;4.342;2023-01-10T12:02:58;31.63;;;4.67;;
17347;SDS011;8791;50.876;4.342;2023-01-10T12:05:25;20.53;;;4.60;;
17347;SDS011;8791;50.876;4.342;2023-01-10T12:07:52;33.23;;;4.27;;
17347;SDS011;8791;50.876;4.342;2023-01-10T12:10:21;15.40;;;3.50;;
17347;SDS011;8791;50.876;4.342;2023-01-10T12:12:52;28.63;;;4.30;;
17347;SDS011;8791;50.876;4.342;2023-01-10T12:15:23;24.60;;;3.17;;
17347;SDS011;8791;50.876;4.342;2023-01-10T12:17:51;24.70;;;3.83;;
17347;SDS011;8791;50.876;4.342;2023-01-10T12:20:19;18.50;;;3.13;;
17347;SDS011;8791;50.876;4.342;2023-01-10T12:22:49;20.73;;;3.80;;
17347;SDS011;8791;50.876;4.342;2023-01-10T12:25:19;25.43;;;4.30;;
17347;SDS011;8791;50.876;4.342;2023-01-10T12:27:48;19.07;;;3.63;;
17347;SDS011;8791;50.876;4.342;2023-01-10T12:30:17;18.67;;;3.73;;
17347;SDS011;8791;50.876;4.342;2023-01-10T12:32:50;24.20;;;3.70;;
17347;SDS011;8791;50.876;4.342;2023-01-10T12:35:19;18.97;;;3.33;;
17347;SDS011;8791;50.876;4.342;2023-01-10T12:37:50;20.00;;;4.23;;
17347;SDS011;8791;50.876;4.342;2023-01-10T12:40:22;20.23;;;3.63;;
17347;SDS011;8791;50.876;4.342;2023-01-10T12:42:56;16.23;;;3.47;;
17347;SDS011;8791;50.876;4.342;2023-01-10T12:45:46;19.70;;;4.07;;
17347;SDS011;8791;50.876;4.342;2023-01-10T12:48:20;22.17;;;3.30;;
17347;SDS011;8791;50.876;4.342;2023-01-10T12:50:53;16.73;;;3.40;;
17347;SDS011;8791;50.876;4.342;2023-01-10T12:53:24;18.77;;;3.60;;
17347;SDS011;8791;50.876;4.342;2023-01-10T12:55:58;22.93;;;3.83;;
17347;SDS011;8791;50.876;4.342;2023-01-10T12:58:31;16.83;;;3.67;;
17347;SDS011;8791;50.876;4.342;2023-01-10T13:01:05;17.90;;;3.43;;
17347;SDS011;8791;50.876;4.342;2023-01-10T13:03:32;17.40;;;3.60;;
17347;SDS011;8791;50.876;4.342;2023-01-10T13:06:00;19.47;;;3.53;;
17347;SDS011;8791;50.876;4.342;2023-01-10T13:08:30;17.70;;;3.67;;
17347;SDS011;8791;50.876;4.342;2023-01-10T13:11:00;19.40;;;3.40;;
17347;SDS011;8791;50.876;4.342;2023-01-10T13:13:31;10.07;;;3.73;;
17347;SDS011;8791;50.876;4.342;2023-01-10T13:16:03;15.63;;;3.10;;
17347;SDS011;8791;50.876;4.342;2023-01-10T13:18:57;11.00;;;3.17;;
17347;SDS011;8791;50.876;4.342;2023-01-10T13:21:25;14.83;;;2.70;;
17347;SDS011;8791;50.876;4.342;2023-01-10T13:23:53;16.57;;;2.93;;
17347;SDS011;8791;50.876;4.342;2023-01-10T13:26:24;12.43;;;3.17;;
17347;SDS011;8791;50.876;4.342;2023-01-10T13:28:55;21.50;;;3.63;;
17347;SDS011;8791;50.876;4.342;2023-01-10T13:31:26;19.13;;;3.43;;
17347;SDS011;8791;50.876;4.342;2023-01-10T13:33:56;15.53;;;3.13;;
17347;SDS011;8791;50.876;4.342;2023-01-10T13:36:26;10.27;;;2.90;;
17347;SDS011;8791;50.876;4.342;2023-01-10T13:39:00;13.07;;;2.50;;
17347;SDS011;8791;50.876;4.342;2023-01-10T13:48:02;18.70;;;4.03;;
17347;SDS011;8791;50.876;4.342;2023-01-10T13:50:47;40.50;;;8.50;;
17347;SDS011;8791;50.876;4.342;2023-01-10T13:56:30;11.70;;;4.10;;
17347;SDS011;8791;50.876;4.342;2023-01-10T13:58:59;18.00;;;3.97;;
17347;SDS011;8791;50.876;4.342;2023-01-10T14:01:48;16.97;;;3.50;;
17347;SDS011;8791;50.876;4.342;2023-01-10T14:04:36;16.83;;;3.57;;
17347;SDS011;8791;50.876;4.342;2023-01-10T14:07:12;10.80;;;2.63;;
17347;SDS011;8791;50.876;4.342;2023-01-10T14:09:46;16.33;;;2.93;;
17347;SDS011;8791;50.876;4.342;2023-01-10T14:12:15;10.03;;;2.67;;
17347;SDS011;8791;50.876;4.342;2023-01-10T14:14:49;13.00;;;3.00;;
17347;SDS011;8791;50.876;4.342;2023-01-10T14:17:26;15.83;;;3.40;;
17347;SDS011;8791;50.876;4.342;2023-01-10T14:20:00;14.17;;;3.33;;
17347;SDS011;8791;50.876;4.342;2023-01-10T14:22:34;12.20;;;2.83;;
17347;SDS011;8791;50.876;4.342;2023-01-10T14:25:03;11.83;;;2.90;;
17347;SDS011;8791;50.876;4.342;2023-01-10T14:27:35;14.97;;;3.40;;
17347;SDS011;8791;50.876;4.342;2023-01-10T14:30:13;10.60;;;2.47;;
17347;SDS011;8791;50.876;4.342;2023-01-10T14:32:45;6.30;;;2.63;;
17347;SDS011;8791;50.876;4.342;2023-01-10T14:35:17;7.33;;;2.20;;
17347;SDS011;8791;50.876;4.342;2023-01-10T14:37:48;10.37;;;3.17;;
17347;SDS011;8791;50.876;4.342;2023-01-10T14:40:21;9.83;;;2.80;;
17347;SDS011;8791;50.876;4.342;2023-01-10T14:42:52;7.37;;;2.20;;
17347;SDS011;8791;50.876;4.342;2023-01-10T14:45:28;7.10;;;3.20;;
17347;SDS011;8791;50.876;4.342;2023-01-10T14:47:58;4.57;;;2.33;;
17347;SDS011;8791;50.876;4.342;2023-01-10T14:50:27;6.00;;;2.03;;
17347;SDS011;8791;50.876;4.342;2023-01-10T14:52:56;5.13;;;2.10;;
17347;SDS011;8791;50.876;4.342;2023-01-10T14:55:23;6.23;;;2.13;;
17347;SDS011;8791;50.876;4.342;2023-01-10T14:57:57;6.63;;;1.97;;
17347;SDS011;8791;50.876;4.342;2023-01-10T15:00:26;3.10;;;1.77;;
17347;SDS011;8791;50.876;4.342;2023-01-10T15:02:54;3.60;;;1.63;;
17347;SDS011;8791;50.876;4.342;2023-01-10T15:05:27;5.13;;;1.70;;
17347;SDS011;8791;50.876;4.342;2023-01-10T15:10:43;4.70;;;2.07;;
17347;SDS011;8791;50.876;4.342;2023-01-10T15:13:13;5.17;;;1.70;;
17347;SDS011;8791;50.876;4.342;2023-01-10T15:15:42;3.20;;;1.77;;
17347;SDS011;8791;50.876;4.342;2023-01-10T15:18:15;2.93;;;1.80;;
17347;SDS011;8791;50.876;4.342;2023-01-10T15:20:53;3.80;;;1.37;;
17347;SDS011;8791;50.876;4.342;2023-01-10T15:23:21;3.43;;;1.83;;
17347;SDS011;8791;50.876;4.342;2023-01-10T15:25:53;3.53;;;1.63;;
17347;SDS011;8791;50.876;4.342;2023-01-10T15:28:22;3.43;;;1.80;;
17347;SDS011;8791;50.876;4.342;2023-01-10T15:30:50;2.60;;;1.40;;
17347;SDS011;8791;50.876;4.342;2023-01-10T15:33:18;2.60;;;1.53;;
17347;SDS011;8791;50.876;4.342;2023-01-10T15:35:50;4.73;;;1.60;;
17347;SDS011;8791;50.876;4.342;2023-01-10T15:38:19;3.80;;;1.57;;
17347;SDS011;8791;50.876;4.342;2023-01-10T15:40:53;1.30;;;1.20;;
17347;SDS011;8791;50.876;4.342;2023-01-10T15:43:24;3.50;;;1.63;;
17347;SDS011;8791;50.876;4.342;2023-01-10T15:45:53;3.93;;;1.20;;
17347;SDS011;8791;50.876;4.342;2023-01-10T15:48:24;1.50;;;1.40;;